Time;durP1;ratioP1;P1;durP2;ratioP2;P2;SDS_P1;SDS_P2;PMS_P1;PMS_P2;Temp;Humidity;BMP_temperature;BMP_pressure;BME280_temperature;BME280_humidity;BME280_pressure;Samples;Min_cycle;Max_cycle;Signal;HPM_P1;HPM_P2
2022/05/18 00:01:07;;;;;;;11.27;5.95;;;;;;;16.98;100.00;101514.69;5011403;28;20370;-79
2022/05/18 00:03:36;;;;;;;9.63;5.80;;;;;;;17.11;100.00;101523.56;4989647;28;20363;-79
2022/05/18 00:06:04;;;;;;;11.70;6.35;;;;;;;16.95;100.00;101526.06;4995081;28;20034;-77
2022/05/18 00:08:36;;;;;;;12.23;6.88;;;;;;;16.88;100.00;101523.88;5002932;28;20085;-78
2022/05/18 00:11:14;;;;;;;11.30;6.35;;;;;;;16.89;100.00;101533.06;5006511;28;20034;-78
2022/05/18 00:13:41;;;;;;;21.13;7.20;;;;;;;16.79;100.00;101532.13;4978332;28;20434;-79
2022/05/18 00:16:07;;;;;;;13.13;6.72;;;;;;;16.76;100.00;101536.06;4991545;28;20035;-80
2022/05/18 00:18:33;;;;;;;12.95;7.05;;;;;;;16.73;100.00;101541.91;4987717;28;20118;-79
2022/05/18 00:21:00;;;;;;;11.98;6.70;;;;;;;16.79;100.00;101540.44;4977127;28;20042;-77
2022/05/18 00:23:27;;;;;;;15.18;5.95;;;;;;;16.60;100.00;101535.78;4992392;28;20030;-79
2022/05/18 00:25:52;;;;;;;16.35;6.43;;;;;;;16.52;100.00;101545.66;4989928;28;20486;-78
2022/05/18 00:28:18;;;;;;;12.02;5.88;;;;;;;16.42;100.00;101546.66;4958676;28;20034;-79
2022/05/18 00:30:43;;;;;;;15.88;6.85;;;;;;;16.43;100.00;101553.91;4983102;28;20470;-78
2022/05/18 00:33:10;;;;;;;13.30;6.55;;;;;;;16.53;100.00;101549.31;5007048;28;20054;-78
2022/05/18 00:35:38;;;;;;;15.45;6.15;;;;;;;16.57;100.00;101553.50;4992874;28;20501;-79
2022/05/18 00:38:04;;;;;;;13.35;6.32;;;;;;;16.61;100.00;101549.47;4960292;28;20038;-79
2022/05/18 00:40:31;;;;;;;12.68;6.18;;;;;;;16.51;100.00;101548.56;5007015;28;20022;-78
2022/05/18 00:42:57;;;;;;;13.50;6.53;;;;;;;16.43;100.00;101551.16;4992837;28;20038;-78
2022/05/18 00:45:22;;;;;;;19.77;7.65;;;;;;;16.27;100.00;101549.81;4988346;28;20035;-78
2022/05/18 00:47:48;;;;;;;17.30;6.78;;;;;;;16.19;100.00;101546.03;4994252;28;20038;-77
2022/05/18 00:50:21;;;;;;;13.38;7.45;;;;;;;16.06;100.00;101551.81;4994477;28;20042;-78
2022/05/18 00:53:22;;;;;;;15.57;7.50;;;;;;;16.01;100.00;101554.13;4992566;28;20027;-78
2022/05/18 00:55:55;;;;;;;15.38;7.75;;;;;;;15.92;100.00;101547.53;4987778;28;20050;-78
2022/05/18 00:58:35;;;;;;;17.45;7.60;;;;;;;15.93;100.00;101547.38;4990942;28;20049;-77
2022/05/18 01:01:01;;;;;;;10.57;6.85;;;;;;;16.09;100.00;101551.53;4993023;28;20394;-78
2022/05/18 01:03:32;;;;;;;18.77;7.50;;;;;;;16.10;100.00;101547.72;4993702;28;20447;-78
2022/05/18 01:06:13;;;;;;;10.32;6.45;;;;;;;16.05;100.00;101539.88;4994115;28;20081;-78
2022/05/18 01:08:56;;;;;;;13.77;6.75;;;;;;;16.21;100.00;101544.00;5005985;28;20378;-79
2022/05/18 01:11:22;;;;;;;18.70;7.90;;;;;;;15.98;100.00;101546.97;4975535;28;20077;-79
2022/05/18 01:13:49;;;;;;;20.15;7.70;;;;;;;15.96;100.00;101549.88;4978026;28;20261;-78
2022/05/18 01:16:15;;;;;;;17.90;7.45;;;;;;;16.03;100.00;101549.31;4989018;28;20042;-78
2022/05/18 01:18:42;;;;;;;11.30;6.75;;;;;;;16.12;100.00;101554.00;4989681;28;20117;-79
2022/05/18 01:21:08;;;;;;;18.35;7.80;;;;;;;16.01;100.00;101548.59;4989332;28;20042;-79
2022/05/18 01:23:52;;;;;;;13.13;6.80;;;;;;;15.85;100.00;101543.59;4976929;28;20872;-78
2022/05/18 01:26:36;;;;;;;15.57;7.88;;;;;;;15.89;100.00;101550.56;4989931;28;20045;-79
2022/05/18 01:29:05;;;;;;;15.35;7.72;;;;;;;15.75;100.00;101540.75;4994689;28;20038;-79
2022/05/18 01:31:55;;;;;;;14.95;7.35;;;;;;;15.75;100.00;101549.03;4977084;28;20041;-78
2022/05/18 01:34:28;;;;;;;11.98;7.28;;;;;;;15.67;100.00;101551.59;4991834;28;20080;-79
2022/05/18 01:36:53;;;;;;;14.20;6.55;;;;;;;15.76;100.00;101550.81;4993371;28;20038;-78
2022/05/18 01:39:38;;;;;;;14.23;6.20;;;;;;;15.86;100.00;101545.34;5004741;28;20518;-78
2022/05/18 01:42:13;;;;;;;10.98;6.95;;;;;;;15.80;100.00;101550.38;4992610;28;20394;-78
2022/05/18 01:44:39;;;;;;;16.67;6.80;;;;;;;15.67;100.00;101551.59;4993091;28;21022;-79
2022/05/18 01:47:05;;;;;;;14.25;6.95;;;;;;;15.54;100.00;101552.69;4998351;28;20421;-77
2022/05/18 01:49:34;;;;;;;14.20;6.45;;;;;;;15.56;100.00;101550.69;4985280;28;20046;-78
2022/05/18 01:52:00;;;;;;;16.25;7.18;;;;;;;15.50;100.00;101544.84;4976846;28;20042;-78
2022/05/18 01:54:26;;;;;;;14.50;7.63;;;;;;;15.65;100.00;101553.63;4976928;28;20046;-78
2022/05/18 01:56:51;;;;;;;15.75;7.63;;;;;;;15.66;100.00;101553.50;5013070;28;20042;-78
2022/05/18 01:59:16;;;;;;;18.25;7.32;;;;;;;15.55;100.00;101551.69;4990586;28;20085;-79
2022/05/18 02:01:44;;;;;;;14.18;6.70;;;;;;;15.54;100.00;101555.44;4993776;28;20705;-79
2022/05/18 02:04:10;;;;;;;11.77;6.60;;;;;;;15.50;100.00;101558.66;4959825;28;20031;-78
2022/05/18 02:06:36;;;;;;;13.77;7.35;;;;;;;15.36;100.00;101551.56;4977121;28;20038;-79
2022/05/18 02:09:04;;;;;;;18.60;6.43;;;;;;;15.35;100.00;101558.13;4996204;28;20465;-79
2022/05/18 02:11:32;;;;;;;15.15;6.65;;;;;;;15.39;100.00;101549.41;4995011;28;20050;-79
2022/05/18 02:13:58;;;;;;;14.57;6.93;;;;;;;15.20;100.00;101550.19;4992945;28;20107;-78
2022/05/18 02:16:24;;;;;;;17.38;7.85;;;;;;;15.09;100.00;101544.72;4972158;28;20178;-78
2022/05/18 02:18:49;;;;;;;10.07;6.65;;;;;;;15.14;100.00;101549.84;4992679;28;20041;-79
2022/05/18 02:21:15;;;;;;;15.45;6.82;;;;;;;15.19;100.00;101544.78;4979695;28;20034;-79
2022/05/18 02:23:43;;;;;;;11.32;7.03;;;;;;;15.03;100.00;101543.34;4971583;28;20045;-78
2022/05/18 02:26:14;;;;;;;9.45;6.75;;;;;;;15.03;100.00;101543.34;4995373;28;20031;-79
2022/05/18 02:28:41;;;;;;;10.80;6.38;;;;;;;15.08;100.00;101551.22;4987466;28;20039;-80
2022/05/18 02:31:07;;;;;;;15.20;6.95;;;;;;;15.14;100.00;101547.09;4989792;28;20084;-80
2022/05/18 02:33:33;;;;;;;11.75;7.28;;;;;;;15.33;100.00;101543.56;4977085;28;20046;-79
2022/05/18 02:35:58;;;;;;;15.27;6.53;;;;;;;15.33;100.00;101540.81;5012966;28;20088;-77
2022/05/18 02:38:26;;;;;;;13.98;6.68;;;;;;;15.33;100.00;101536.19;4960334;28;20031;-79
2022/05/18 02:40:55;;;;;;;12.32;6.63;;;;;;;15.31;100.00;101542.84;4957039;28;20036;-78
2022/05/18 02:43:21;;;;;;;15.32;6.38;;;;;;;15.31;100.00;101546.44;4994228;28;20034;-79
2022/05/18 02:45:46;;;;;;;12.25;6.82;;;;;;;15.38;100.00;101547.69;4979219;28;20083;-79
2022/05/18 02:48:11;;;;;;;9.05;7.00;;;;;;;15.53;100.00;101547.34;4991586;28;20053;-79
2022/05/18 02:50:37;;;;;;;14.10;7.47;;;;;;;15.74;100.00;101553.69;4959110;28;20042;-77
2022/05/18 02:53:03;;;;;;;13.00;7.43;;;;;;;15.61;100.00;101545.63;4983522;28;20081;-79
2022/05/18 02:58:12;;;;;;;10.98;6.63;;;;;;;15.73;100.00;101548.31;4989550;28;20030;-78
2022/05/18 03:00:39;;;;;;;19.63;8.13;;;;;;;15.82;100.00;101546.63;5011276;28;20500;-78
2022/05/18 03:03:06;;;;;;;12.60;7.30;;;;;;;15.77;100.00;101541.50;4996141;28;20034;-79
2022/05/18 03:05:32;;;;;;;16.52;6.88;;;;;;;15.92;100.00;101548.41;4994722;28;20454;-79
2022/05/18 03:07:58;;;;;;;11.63;7.28;;;;;;;15.82;100.00;101547.47;4995570;28;20040;-79
2022/05/18 03:10:24;;;;;;;10.88;6.82;;;;;;;15.87;100.00;101552.59;4995679;28;20031;-79
2022/05/18 03:12:50;;;;;;;11.30;6.60;;;;;;;15.76;100.00;101548.06;4995992;28;20196;-78
2022/05/18 03:15:15;;;;;;;9.80;7.15;;;;;;;15.84;100.00;101550.09;4995058;28;20101;-78
2022/05/18 03:17:43;;;;;;;11.50;7.15;;;;;;;15.73;100.00;101556.59;4978108;28;20045;-80
2022/05/18 03:23:33;;;;;;;11.13;7.00;;;;;;;15.65;100.00;101567.44;4975299;28;20034;-79
2022/05/18 03:25:42;;;;;;;17.20;7.35;;;;;;;15.70;100.00;101568.75;4992654;28;20072;-78
2022/05/18 03:28:07;;;;;;;17.45;8.27;;;;;;;15.74;100.00;101558.31;4994671;28;20105;-79
2022/05/18 03:30:33;;;;;;;14.77;7.63;;;;;;;15.83;100.00;101565.81;4973833;28;20101;-78
2022/05/18 03:32:58;;;;;;;17.15;8.38;;;;;;;15.79;100.00;101570.75;4975332;28;20086;-79
2022/05/18 03:35:25;;;;;;;20.92;8.90;;;;;;;15.78;100.00;101573.63;4992173;28;20034;-79
2022/05/18 03:37:53;;;;;;;11.85;8.95;;;;;;;15.91;100.00;101577.03;4992910;28;20042;-79
2022/05/18 03:40:19;;;;;;;16.30;8.55;;;;;;;15.87;100.00;101571.94;4978428;28;20045;-79
2022/05/18 03:42:44;;;;;;;17.15;8.90;;;;;;;15.83;100.00;101581.53;4978576;28;20418;-78
2022/05/18 03:45:10;;;;;;;16.73;8.27;;;;;;;15.85;100.00;101585.88;4978215;28;20034;-78
2022/05/18 03:47:36;;;;;;;14.73;7.78;;;;;;;15.91;100.00;101593.63;4979441;28;20397;-79
2022/05/18 03:50:01;;;;;;;13.35;7.80;;;;;;;15.81;100.00;101589.94;4993895;28;20046;-77
2022/05/18 03:52:27;;;;;;;16.15;8.40;;;;;;;15.74;100.00;101603.38;4977795;28;20027;-78
2022/05/18 03:54:52;;;;;;;14.18;8.48;;;;;;;15.79;100.00;101601.13;4977226;28;20065;-78
2022/05/18 03:57:19;;;;;;;14.90;7.72;;;;;;;15.89;100.00;101611.31;4941214;28;20039;-77
2022/05/18 03:59:45;;;;;;;19.83;8.70;;;;;;;15.90;100.00;101607.56;4970310;28;20050;-78
2022/05/18 04:02:13;;;;;;;17.88;8.45;;;;;;;15.94;100.00;101609.91;4986960;28;20038;-78
2022/05/18 04:04:39;;;;;;;15.85;8.77;;;;;;;15.99;100.00;101609.50;4973306;28;20031;-78
2022/05/18 04:07:05;;;;;;;17.50;8.90;;;;;;;16.07;100.00;101615.22;4993827;28;20034;-77
2022/05/18 04:09:31;;;;;;;16.10;8.57;;;;;;;16.04;100.00;101614.63;4994123;28;20030;-79
2022/05/18 04:11:57;;;;;;;17.42;9.05;;;;;;;16.14;100.00;101621.06;4960018;28;20461;-79
2022/05/18 04:14:22;;;;;;;21.48;9.07;;;;;;;16.14;100.00;101624.69;4975719;28;20121;-79
2022/05/18 04:16:49;;;;;;;15.30;9.15;;;;;;;15.99;100.00;101626.06;4959117;28;20066;-79
2022/05/18 04:19:16;;;;;;;17.00;8.93;;;;;;;15.98;100.00;101625.19;4992382;28;20050;-80
2022/05/18 04:21:42;;;;;;;22.15;9.13;;;;;;;16.03;100.00;101624.78;4989182;28;20042;-80
2022/05/18 04:24:07;;;;;;;19.95;9.02;;;;;;;16.11;100.00;101632.38;4970626;28;20084;-78
2022/05/18 04:26:33;;;;;;;15.18;8.95;;;;;;;16.13;100.00;101642.28;4993685;28;20038;-79
2022/05/18 04:28:59;;;;;;;19.60;9.27;;;;;;;16.16;100.00;101639.22;4974052;28;20479;-78
2022/05/18 04:31:24;;;;;;;17.50;9.35;;;;;;;16.15;100.00;101631.06;4991198;28;20085;-79
2022/05/18 04:33:50;;;;;;;21.00;9.25;;;;;;;16.28;100.00;101630.84;4974659;28;20121;-78
2022/05/18 04:36:15;;;;;;;14.18;8.95;;;;;;;16.26;100.00;101641.16;4986992;28;20058;-80
2022/05/18 04:38:41;;;;;;;20.35;10.40;;;;;;;16.23;100.00;101633.16;4967311;28;20548;-78
2022/05/18 04:41:06;;;;;;;15.98;9.73;;;;;;;16.35;100.00;101637.56;4989363;28;20038;-77
2022/05/18 04:43:32;;;;;;;16.00;8.82;;;;;;;16.33;100.00;101636.81;4991587;28;20035;-78
2022/05/18 04:45:59;;;;;;;17.88;10.15;;;;;;;16.37;100.00;101641.06;4994585;28;20471;-80
2022/05/18 04:48:30;;;;;;;15.07;9.82;;;;;;;16.43;100.00;101632.22;4995754;28;20065;-79
2022/05/18 04:50:56;;;;;;;18.17;8.43;;;;;;;16.49;100.00;101639.91;4952036;28;20152;-79
2022/05/18 04:53:21;;;;;;;17.65;8.85;;;;;;;16.61;100.00;101637.03;5007066;28;20026;-79
2022/05/18 04:55:49;;;;;;;15.02;8.45;;;;;;;16.63;100.00;101637.81;5006633;28;20026;-79
2022/05/18 04:58:15;;;;;;;15.98;8.70;;;;;;;16.81;100.00;101641.63;4987970;28;20451;-79
2022/05/18 05:00:42;;;;;;;15.02;8.25;;;;;;;16.92;100.00;101660.00;4989074;28;20045;-78
2022/05/18 05:03:11;;;;;;;14.52;8.13;;;;;;;16.98;100.00;101651.13;4993351;28;20038;-80
2022/05/18 05:05:38;;;;;;;14.32;8.45;;;;;;;17.12;100.00;101662.78;4995403;28;20045;-81
2022/05/18 05:08:04;;;;;;;10.18;7.05;;;;;;;17.09;100.00;101659.28;4996335;28;20085;-80
2022/05/18 05:10:29;;;;;;;15.48;8.60;;;;;;;17.23;100.00;101657.09;4979733;28;20038;-79
2022/05/18 05:12:54;;;;;;;19.45;8.90;;;;;;;17.27;100.00;101655.81;4985034;28;20035;-80
2022/05/18 05:15:20;;;;;;;20.48;9.90;;;;;;;17.35;100.00;101655.97;4975832;28;20047;-82
2022/05/18 05:17:46;;;;;;;19.33;8.73;;;;;;;17.57;100.00;101670.50;4996178;28;20048;-79
2022/05/18 05:20:13;;;;;;;13.10;8.95;;;;;;;17.63;100.00;101661.63;4954261;28;20517;-79
2022/05/18 05:22:39;;;;;;;13.50;8.35;;;;;;;17.94;100.00;101661.44;4974709;28;20447;-80
2022/05/18 05:25:05;;;;;;;21.02;8.40;;;;;;;18.16;100.00;101655.53;4976518;28;20074;-80
2022/05/18 05:27:31;;;;;;;13.68;8.05;;;;;;;18.21;100.00;101665.28;4994622;28;20038;-80
2022/05/18 05:29:57;;;;;;;19.98;8.55;;;;;;;18.63;100.00;101662.91;4986850;28;20034;-80
2022/05/18 05:32:25;;;;;;;15.10;8.35;;;;;;;18.90;100.00;101672.25;5009962;28;20485;-81
2022/05/18 05:34:51;;;;;;;18.38;8.25;;;;;;;18.91;100.00;101665.69;5004166;28;20070;-78
2022/05/18 05:37:16;;;;;;;17.80;8.73;;;;;;;19.03;100.00;101674.66;4993022;28;20498;-79
2022/05/18 05:39:42;;;;;;;20.75;8.88;;;;;;;19.39;100.00;101667.19;4969590;28;20162;-79
2022/05/18 05:42:08;;;;;;;22.23;9.00;;;;;;;19.47;100.00;101669.19;4977972;28;20042;-80
2022/05/18 05:44:33;;;;;;;22.75;8.82;;;;;;;19.96;100.00;101666.81;4979946;28;20089;-79
2022/05/18 05:47:03;;;;;;;21.10;8.48;;;;;;;20.20;100.00;101671.69;5012773;28;20046;-78
2022/05/18 05:49:29;;;;;;;16.70;7.95;;;;;;;20.79;100.00;101676.50;4982490;28;20038;-79
2022/05/18 05:51:55;;;;;;;15.27;8.40;;;;;;;21.13;100.00;101678.31;4982033;28;20137;-79
2022/05/18 05:54:21;;;;;;;15.13;8.07;;;;;;;21.40;100.00;101670.72;4975034;28;20050;-80
2022/05/18 05:56:47;;;;;;;18.83;7.78;;;;;;;21.53;100.00;101665.53;4980565;28;20038;-79
2022/05/18 05:59:13;;;;;;;11.77;7.22;;;;;;;21.76;100.00;101674.06;4985453;28;20046;-76
2022/05/18 06:01:40;;;;;;;12.88;7.05;;;;;;;22.07;98.16;101669.66;4993412;28;20460;-77
2022/05/18 06:04:07;;;;;;;11.85;6.15;;;;;;;22.59;94.67;101669.16;4979208;28;20390;-79
2022/05/18 06:06:35;;;;;;;12.35;6.32;;;;;;;22.21;94.73;101680.94;4970130;28;20058;-79
2022/05/18 06:09:01;;;;;;;8.77;5.57;;;;;;;21.95;99.19;101678.38;5009303;28;20057;-80
2022/05/18 06:11:27;;;;;;;9.75;5.72;;;;;;;21.56;100.00;101673.56;4984437;28;20035;-80
2022/05/18 06:13:53;;;;;;;10.52;5.65;;;;;;;21.74;99.23;101687.31;4984668;28;20038;-79
2022/05/18 06:16:18;;;;;;;15.27;5.70;;;;;;;21.46;100.00;101678.38;4971289;28;20039;-79
2022/05/18 06:18:44;;;;;;;12.13;5.63;;;;;;;21.80;99.62;101667.06;4995769;28;20043;-79
2022/05/18 06:21:09;;;;;;;14.95;5.57;;;;;;;21.62;99.77;101669.19;4985081;28;20040;-80
2022/05/18 06:23:35;;;;;;;12.88;5.22;;;;;;;21.82;99.42;101675.25;5008599;28;20030;-77
2022/05/18 06:26:05;;;;;;;11.25;5.90;;;;;;;22.11;98.85;101677.50;4998481;28;20034;-79
2022/05/18 06:28:36;;;;;;;12.85;6.07;;;;;;;22.39;97.49;101677.09;5015889;28;20037;-79
2022/05/18 06:31:03;;;;;;;9.93;5.90;;;;;;;22.79;97.22;101680.75;4979471;28;20033;-78
2022/05/18 06:33:28;;;;;;;10.18;6.65;;;;;;;23.40;91.72;101680.97;4981358;28;20046;-79
2022/05/18 06:35:54;;;;;;;11.88;6.50;;;;;;;23.58;89.52;101675.06;4997302;28;20046;-79
2022/05/18 06:38:20;;;;;;;12.48;6.55;;;;;;;22.99;93.21;101674.72;4982956;28;20045;-77
2022/05/18 06:43:32;;;;;;;15.77;6.53;;;;;;;22.78;93.92;101680.97;4985776;28;20034;-79
2022/05/18 06:46:00;;;;;;;13.38;6.82;;;;;;;22.61;96.52;101680.16;5002871;28;20046;-82
2022/05/18 06:48:25;;;;;;;17.65;7.43;;;;;;;22.54;95.42;101688.38;4988557;28;20034;-80
2022/05/18 06:50:51;;;;;;;27.92;8.07;;;;;;;22.34;95.60;101690.72;5004746;28;20048;-79
2022/05/18 06:53:17;;;;;;;10.50;7.65;;;;;;;22.33;96.16;101694.56;5007978;28;20030;-78
2022/05/18 06:55:42;;;;;;;13.60;8.32;;;;;;;22.19;96.43;101687.78;5022516;28;20471;-79
2022/05/18 06:58:08;;;;;;;22.00;7.65;;;;;;;22.17;96.85;101701.03;4970995;28;20050;-77
2022/05/18 07:00:34;;;;;;;15.90;8.50;;;;;;;22.41;96.52;101696.47;5004001;28;20039;-79
2022/05/18 07:02:59;;;;;;;15.75;8.48;;;;;;;22.29;97.20;101696.84;4978999;28;20041;-78
2022/05/18 07:05:25;;;;;;;19.70;8.10;;;;;;;22.19;98.43;101707.28;4985349;28;20549;-79
2022/05/18 07:07:51;;;;;;;18.95;8.88;;;;;;;22.15;98.96;101703.09;4988907;28;20035;-78
2022/05/18 07:10:16;;;;;;;20.77;8.30;;;;;;;22.35;96.60;101693.34;5005095;28;20031;-78
2022/05/18 07:12:42;;;;;;;22.23;9.40;;;;;;;22.17;98.56;101706.63;4988691;28;20553;-78
2022/05/18 07:15:08;;;;;;;19.13;9.55;;;;;;;22.12;97.90;101698.78;4983758;28;20398;-81
2022/05/18 07:17:34;;;;;;;15.88;9.10;;;;;;;22.38;97.42;101701.34;4984242;28;20486;-79
2022/05/18 07:20:01;;;;;;;23.88;9.30;;;;;;;22.48;98.08;101698.38;5005248;28;20030;-78
2022/05/18 07:22:26;;;;;;;24.33;9.82;;;;;;;22.38;98.12;101712.53;5005396;28;20124;-78
2022/05/18 07:24:52;;;;;;;27.88;9.23;;;;;;;22.60;97.15;101706.34;5004982;28;20043;-78
2022/05/18 07:27:17;;;;;;;20.35;8.27;;;;;;;22.81;95.77;101719.69;4963553;28;20061;-78
2022/05/18 07:29:43;;;;;;;25.95;8.20;;;;;;;22.85;95.34;101716.34;4988609;28;20054;-78
2022/05/18 07:32:09;;;;;;;15.50;7.47;;;;;;;22.82;93.38;101716.72;5004783;28;20042;-78
2022/05/18 07:34:36;;;;;;;16.15;7.20;;;;;;;22.82;93.84;101722.28;4989003;28;20058;-78
2022/05/18 07:37:02;;;;;;;19.00;7.40;;;;;;;22.86;93.82;101720.03;4991317;28;20031;-81
2022/05/18 07:39:30;;;;;;;16.90;7.30;;;;;;;22.88;93.06;101727.16;4969380;28;20038;-78
2022/05/18 07:42:00;;;;;;;15.45;6.60;;;;;;;23.20;91.71;101722.50;4999962;28;20036;-78
2022/05/18 07:44:26;;;;;;;23.45;6.13;;;;;;;23.05;91.88;101732.66;4990183;28;20035;-78
2022/05/18 07:46:52;;;;;;;13.77;6.03;;;;;;;23.20;90.51;101730.00;4991159;28;20133;-78
2022/05/18 07:49:18;;;;;;;14.30;6.20;;;;;;;23.83;88.17;101731.69;4962248;28;20081;-78
2022/05/18 07:51:44;;;;;;;14.15;5.07;;;;;;;23.98;85.38;101734.50;4998287;28;20031;-77
2022/05/18 07:54:10;;;;;;;15.75;5.07;;;;;;;23.81;82.68;101735.69;5016215;28;20027;-78
2022/05/18 07:56:36;;;;;;;16.17;4.70;;;;;;;23.67;83.27;101732.63;4994592;28;20038;-79
2022/05/18 07:59:03;;;;;;;11.80;5.03;;;;;;;23.55;84.10;101736.06;5000071;28;20058;-80
2022/05/18 08:01:29;;;;;;;14.95;5.53;;;;;;;24.05;83.31;101745.81;4995364;28;20027;-78
2022/05/18 08:03:54;;;;;;;16.58;4.60;;;;;;;24.13;82.74;101745.75;4959780;28;20106;-78
2022/05/18 08:06:21;;;;;;;12.48;5.25;;;;;;;24.16;83.03;101752.91;4974466;28;20107;-78
2022/05/18 08:08:46;;;;;;;27.77;5.65;;;;;;;24.08;83.92;101752.97;4998199;28;20058;-78
2022/05/18 08:16:40;;;;;;;14.80;5.93;;;;;;;23.39;84.17;101756.63;5005284;28;20038;-78
2022/05/18 08:19:10;;;;;;;18.30;6.25;;;;;;;23.37;84.04;101753.16;5001481;28;20622;-78
2022/05/18 08:21:37;;;;;;;15.93;6.15;;;;;;;23.81;83.55;101756.16;5016486;28;20482;-78
2022/05/18 08:24:05;;;;;;;21.65;6.68;;;;;;;24.82;80.35;101758.69;4976075;28;20031;-79
2022/05/18 08:26:31;;;;;;;28.33;6.43;;;;;;;24.70;80.09;101766.69;4979407;28;20042;-79
2022/05/18 08:28:57;;;;;;;17.00;6.60;;;;;;;25.78;76.04;101768.94;4985161;28;20026;-79
2022/05/18 08:31:23;;;;;;;18.85;7.68;;;;;;;26.16;72.42;101763.94;4987908;28;20034;-79
2022/05/18 08:33:50;;;;;;;29.40;7.82;;;;;;;25.75;74.19;101769.34;4994805;28;20060;-79
2022/05/18 08:36:17;;;;;;;20.83;7.55;;;;;;;25.43;75.34;101764.03;4990321;28;20047;-80
2022/05/18 08:38:43;;;;;;;27.80;8.38;;;;;;;25.37;75.16;101761.16;4953375;28;20039;-78
2022/05/18 08:41:15;;;;;;;19.67;7.68;;;;;;;24.98;75.66;101754.81;4986400;28;20061;-78
2022/05/18 08:43:46;;;;;;;19.85;7.80;;;;;;;24.59;79.33;101772.78;4982124;28;20080;-79
2022/05/18 08:46:40;;;;;;;23.52;8.07;;;;;;;24.47;81.02;101768.69;4988179;28;20030;-79
2022/05/18 08:49:39;;;;;;;19.58;8.60;;;;;;;24.29;82.74;101755.06;4983893;28;20035;-80
2022/05/18 08:52:34;;;;;;;18.80;8.75;;;;;;;25.60;78.37;101761.00;5008260;28;20530;-79
2022/05/18 08:55:37;;;;;;;25.95;8.98;;;;;;;26.09;73.68;101753.69;5011490;28;20041;-79
2022/05/18 08:58:10;;;;;;;22.45;8.30;;;;;;;26.48;73.55;101756.00;4991795;28;20042;-78
2022/05/18 09:00:41;;;;;;;;;;;;;;;26.68;72.48;101766.50;4997501;28;20054;-78
2022/05/18 09:03:10;;;;;;;24.40;9.20;;;;;;;27.08;69.58;101759.16;4993231;28;20360;-78
2022/05/18 09:05:41;;;;;;;24.40;9.05;;;;;;;26.72;73.96;101762.22;4987841;28;20034;-76
2022/05/18 09:08:14;;;;;;;29.13;9.70;;;;;;;26.87;70.91;101754.50;4987291;28;20034;-77
2022/05/18 09:10:52;;;;;;;24.88;8.98;;;;;;;26.91;70.95;101755.84;4983646;28;20033;-79
2022/05/18 09:13:18;;;;;;;28.27;10.15;;;;;;;27.23;68.97;101760.94;4995049;28;20049;-79
2022/05/18 09:16:08;;;;;;;22.40;9.32;;;;;;;27.04;69.96;101757.84;4946154;28;20038;-80
2022/05/18 09:19:05;;;;;;;24.67;10.35;;;;;;;27.52;69.35;101751.34;4988703;28;20096;-80
2022/05/18 09:21:33;;;;;;;21.40;8.68;;;;;;;27.39;70.79;101754.97;5003229;28;20030;-80
2022/05/18 09:24:27;;;;;;;20.75;9.85;;;;;;;27.38;69.44;101750.44;4995544;28;20043;-79
2022/05/18 09:26:53;;;;;;;23.50;9.45;;;;;;;27.48;70.47;101750.91;4993968;28;20031;-79
2022/05/18 09:29:46;;;;;;;24.48;8.82;;;;;;;27.31;67.67;101744.78;4996100;28;20049;-80
2022/05/18 09:32:26;;;;;;;17.85;7.10;;;;;;;27.55;66.45;101752.84;4995586;28;20341;-80
2022/05/18 09:35:12;;;;;;;19.45;6.57;;;;;;;27.72;65.29;101751.38;4993532;28;20051;-79
2022/05/18 09:37:55;;;;;;;18.02;7.47;;;;;;;28.07;64.31;101754.03;4995031;28;20486;-79
2022/05/18 09:40:29;;;;;;;20.80;5.32;;;;;;;28.23;61.51;101750.78;5010815;28;20057;-80
2022/05/18 09:43:00;;;;;;;23.15;7.07;;;;;;;28.11;63.26;101751.69;4993322;28;20030;-80
2022/05/18 09:45:29;;;;;;;17.15;6.53;;;;;;;27.28;63.74;101747.13;4996385;28;20034;-79
2022/05/18 09:48:00;;;;;;;29.67;5.90;;;;;;;27.66;63.63;101750.31;4994190;28;20052;-80
2022/05/18 09:50:26;;;;;;;13.32;5.75;;;;;;;27.87;62.16;101748.38;4994480;28;20045;-79
2022/05/18 09:52:53;;;;;;;15.63;5.72;;;;;;;27.73;63.52;101752.25;4996053;28;20490;-79
2022/05/18 09:55:24;;;;;;;21.35;6.85;;;;;;;28.47;59.98;101748.41;4995102;28;20065;-79
2022/05/18 09:57:58;;;;;;;18.85;6.95;;;;;;;28.12;61.85;101742.13;4960372;28;20485;-80
2022/05/18 10:00:26;;;;;;;21.40;7.28;;;;;;;28.22;61.85;101732.19;4990591;28;20362;-81
2022/05/18 10:08:44;;;;;;;20.63;7.95;;;;;;;28.89;59.23;101748.09;4997896;28;20070;-81
2022/05/18 10:11:20;;;;;;;19.05;7.05;;;;;;;28.41;60.88;101743.63;4999291;28;20034;-81
2022/05/18 10:14:02;;;;;;;17.33;6.93;;;;;;;28.47;59.19;101739.09;5000224;28;20061;-79
2022/05/18 10:16:31;;;;;;;;;;;;;;;28.39;60.82;101740.19;4984227;28;20035;-80
2022/05/18 10:18:59;;;;;;;18.52;7.07;;;;;;;28.81;61.91;101735.13;5005793;28;19933;-78
2022/05/18 10:21:31;;;;;;;24.33;8.20;;;;;;;28.95;60.57;101735.94;5001651;28;20088;-81
2022/05/18 10:24:03;;;;;;;21.50;7.55;;;;;;;28.88;61.79;101730.34;5012148;28;20070;-79
2022/05/18 10:26:31;;;;;;;23.13;7.80;;;;;;;29.05;60.42;101730.69;5003002;28;20072;-81
2022/05/18 10:29:02;;;;;;;20.08;8.02;;;;;;;29.33;60.70;101729.50;4988832;28;20174;-79
2022/05/18 10:31:42;;;;;;;25.30;8.07;;;;;;;29.46;59.62;101725.75;5001095;28;20041;-79
2022/05/18 10:34:24;;;;;;;27.92;9.10;;;;;;;28.48;63.29;101726.72;4978293;28;20054;-80
2022/05/18 10:37:02;;;;;;;20.67;7.38;;;;;;;29.08;61.90;101718.97;4981810;28;20030;-81
2022/05/18 10:39:37;;;;;;;16.98;6.97;;;;;;;29.23;60.67;101724.34;4966669;28;20037;-80
2022/05/18 10:42:23;;;;;;;18.70;6.55;;;;;;;29.29;59.17;101716.94;4996092;28;20031;-80
2022/05/18 10:44:50;;;;;;;13.13;5.97;;;;;;;29.45;57.54;101718.34;4998678;28;20375;-80
2022/05/18 10:47:21;;;;;;;21.13;5.47;;;;;;;29.50;57.12;101719.44;4997978;28;20057;-80
2022/05/18 10:49:49;;;;;;;15.18;5.88;;;;;;;29.30;56.53;101711.09;4994681;28;20042;-80
2022/05/18 10:52:28;;;;;;;17.52;6.93;;;;;;;29.43;57.96;101715.75;4980974;28;20050;-81
2022/05/18 10:55:00;;;;;;;22.02;6.65;;;;;;;29.84;55.47;101717.28;4983954;28;20431;-81
2022/05/18 10:57:38;;;;;;;13.75;6.38;;;;;;;29.54;56.89;101708.53;4982244;28;20093;-80
2022/05/18 11:00:20;;;;;;;21.13;6.93;;;;;;;29.44;56.07;101713.81;4992909;28;20038;-79
2022/05/18 11:02:55;;;;;;;15.50;6.32;;;;;;;29.94;55.29;101710.22;4999515;28;20039;-81
2022/05/18 11:05:38;;;;;;;25.67;6.72;;;;;;;29.72;56.59;101704.09;4999339;28;20109;-81
2022/05/18 11:08:13;;;;;;;17.55;5.68;;;;;;;29.95;57.92;101707.19;4978607;28;20426;-81
2022/05/18 11:11:04;;;;;;;16.58;6.20;;;;;;;29.72;59.04;101696.47;4988467;28;20035;-82
2022/05/18 11:14:01;;;;;;;16.58;6.85;;;;;;;29.75;57.73;101703.63;4960014;28;20058;-81
2022/05/18 11:16:34;;;;;;;11.75;6.07;;;;;;;29.58;57.83;101708.94;4982722;28;20039;-81
2022/05/18 11:19:33;;;;;;;11.88;6.53;;;;;;;29.11;59.52;101703.56;4983373;28;20034;-82
2022/05/18 11:22:09;;;;;;;17.70;6.93;;;;;;;29.01;58.99;101691.88;4995947;28;20050;-81
2022/05/18 11:25:04;;;;;;;24.35;6.55;;;;;;;29.36;59.53;101698.03;5000310;28;20042;-80
2022/05/18 11:27:39;;;;;;;15.90;5.60;;;;;;;29.77;57.65;101704.25;4961425;28;20043;-80
2022/05/18 11:30:18;;;;;;;22.05;6.05;;;;;;;29.93;57.85;101702.88;4990883;28;20034;-80
2022/05/18 11:32:56;;;;;;;19.65;6.15;;;;;;;29.79;57.06;101699.28;5000687;28;20092;-81
2022/05/18 11:35:34;;;;;;;14.20;5.60;;;;;;;29.58;59.02;101692.00;5005822;28;20039;-83
2022/05/18 11:38:37;;;;;;;14.30;5.35;;;;;;;29.66;58.73;101692.63;4999974;28;20125;-81
2022/05/18 11:41:30;;;;;;;18.88;5.45;;;;;;;29.89;55.15;101699.63;4995960;28;20045;-80
2022/05/18 11:44:06;;;;;;;13.32;5.28;;;;;;;30.04;54.49;101697.34;5006104;28;20114;-79
2022/05/18 11:47:09;;;;;;;13.77;5.32;;;;;;;29.82;54.73;101702.50;5004710;28;20040;-81